Saint Petersburg, FL (33715)

6:27 PM EDT on July 26, 2016 (GMT -0400)
Tierra Verde | | Change Station

Elev 0 ft 27.69 °N, 82.72 °W | Updated 6 seconds ago

Partly Cloudy
Partly Cloudy
91.6 °F
Feels Like 99 °F
N
6.0
Wind Variable Wind from SW
Gusts 9.0 mph

Today
High -- | Low -- °F
--% Chance of Precip.
Yesterday
High -- | Low -- °F
Precip. -- in
Pressure 29.99 in
Visibility 10.0 miles
Clouds Few 3800 ft
Heat Index 99 °F
Dew Point 71 °F
Humidity 52%
Rainfall 0.01 in
Snow Depth Not available.
6:51 AM 8:23 PM
Waning Gibbous, 50% visible
METAR KSPG 262153Z 27005KT 10SM FEW038 32/24 A2999 RMK AO2 SLP155 T03220244
Pressure 29.99 in
Visibility 10.0 miles
Clouds Few 3800 ft
Heat Index 99 °F
Dew Point 71 °F
Humidity 52%
Rainfall 0.01 in
Snow Depth Not available.
6:51 AM 8:23 PM
Waning Gibbous, 50% visible
METAR KSPG 262153Z 27005KT 10SM FEW038 32/24 A2999 RMK AO2 SLP155 T03220244

10-Day Weather Forecast

Almanac

Astronomy

Jul. 26, 2016 Rise Set
Actual Time
Civil Twilight
Nautical Twilight
Astronomical Twilight
Moon
Length of Visible Light
Length of Day
Tomorrow will be .
, % of the Moon is Illuminated

Today's Extremes

State Highs State Lows

Community

WunderPhotos

Upload Photos

1,927,717 photos uploaded!

WunderBlog® & News

Nearby

Air Quality

  Air Quality AQ Index Pollutant
Not available.

Snow Depth

Station Depth Elevation

Earthquake Activity

City Distance Mag. Time & Date
Minimum magnitude displayed is 2.5.

Coastal Water Temperatures

Place Temperature

Stations

Nearby Weather Stations

Station Location Temp. Windchill Dew Point Humidity Wind Precip. Elev Updated Type
                   

Watches & Warnings

There are currently no watches in effect.